»·PEaware :: N246BP L88-KSBP

N246BP :: L88-KSBP

FLIGHT INFORMATION

Flight Status: Arrived
Operator: Privately registered:
United States
More flights under this callsign
Pilot: S Lair T G. (34910)
Aircraft: PIPER PA-28 CHEROKEE ARCHER
(PA28)
More flights by this aircraft type
Origin: L88 New Cuyama
United States
Destination: KSBP San Luis Co Regl
United States
More flights between these airports :: More routes between these airports
Route: MQO
File this flight plan on PilotEdge
Remarks: VFR
Altitude:
(Current/Filed)
4,500ft
Speed:
(Current/Filed)
135kts
Departed: 13-Jan-22 11:07 AM
Arrived: 13-Jan-22 11:35 AM
Distance/Time
Traveled:
50nm/0:28
Distance/Time
To Go:
Arrived

Flight Plot

Page will automatically refresh every two minutes.


Map Options




Map Legend


Flown Route
Filed Route
Departure Airport
Arrival Airport
Navaid (VOR, NDB)
Fix

Horizontal Profiles

Position Reports

Time Latitude Longitude Heading Altitude Ground
Speed
13-Jan-22 10:42 34.942820 -119.690417 62 2151ft 0kts
13-Jan-22 10:43 34.942820 -119.690417 62 2151ft 0kts
13-Jan-22 10:44 34.942820 -119.690417 62 2151ft 0kts
13-Jan-22 10:44 34.942820 -119.690417 62 2151ft 0kts
13-Jan-22 10:45 34.942820 -119.690417 62 2151ft 0kts
13-Jan-22 10:46 34.942820 -119.690417 62 2151ft 0kts
13-Jan-22 10:48 34.942820 -119.690417 62 2151ft 0kts
13-Jan-22 10:48 34.942820 -119.690417 62 2151ft 0kts
13-Jan-22 10:49 34.942820 -119.690417 62 2151ft 0kts
13-Jan-22 10:50 34.942820 -119.690417 62 2151ft 0kts
13-Jan-22 10:51 34.942820 -119.690417 62 2151ft 0kts
13-Jan-22 10:52 34.942820 -119.690417 62 2151ft 0kts
13-Jan-22 10:53 34.942820 -119.690417 62 2151ft 0kts
13-Jan-22 10:54 34.942820 -119.690417 62 2151ft 0kts
13-Jan-22 10:55 34.942820 -119.690417 62 2151ft 0kts
13-Jan-22 10:56 34.942820 -119.690417 62 2151ft 0kts
13-Jan-22 10:57 34.942820 -119.690417 62 2151ft 0kts
13-Jan-22 10:58 34.942820 -119.690417 62 2151ft 0kts
13-Jan-22 10:59 34.942820 -119.690417 62 2151ft 0kts
13-Jan-22 11:00 34.942820 -119.690417 62 2151ft 0kts
13-Jan-22 11:01 34.942698 -119.690737 285 2150ft 4kts
13-Jan-22 11:02 34.942704 -119.691230 203 2149ft 0kts
13-Jan-22 11:03 34.942705 -119.691230 203 2149ft 0kts
13-Jan-22 11:04 34.942705 -119.691230 203 2149ft 0kts
13-Jan-22 11:05 34.942275 -119.691251 118 2149ft 0kts
13-Jan-22 11:06 34.939010 -119.683130 116 2231ft 84kts
13-Jan-22 11:07 34.922930 -119.665236 172 3168ft 80kts
13-Jan-22 11:08 34.915623 -119.685667 288 4004ft 83kts
13-Jan-22 11:09 34.925358 -119.713409 297 4432ft 101kts
13-Jan-22 11:10 34.935358 -119.746853 290 4684ft 116kts
13-Jan-22 11:11 34.948034 -119.787594 287 4645ft 136kts
13-Jan-22 11:12 34.958460 -119.832439 287 4574ft 137kts
13-Jan-22 11:13 34.972368 -119.875790 297 4521ft 137kts
13-Jan-22 11:14 34.991363 -119.916014 306 4466ft 137kts
13-Jan-22 11:15 35.015285 -119.952399 309 4417ft 136kts
13-Jan-22 11:16 35.039108 -119.988687 310 4366ft 136kts
13-Jan-22 11:17 35.059875 -120.026818 283 4296ft 136kts
13-Jan-22 11:18 35.054338 -120.071488 251 4392ft 135kts
13-Jan-22 11:19 35.045154 -120.115473 273 4477ft 135kts
13-Jan-22 11:20 35.052710 -120.160495 284 4564ft 136kts
13-Jan-22 11:21 35.067262 -120.203402 301 4552ft 141kts
13-Jan-22 11:22 35.088819 -120.243047 298 4421ft 140kts
13-Jan-22 11:23 35.106166 -120.285152 294 4310ft 134kts
13-Jan-22 11:24 35.120721 -120.326314 292 3886ft 131kts
13-Jan-22 11:25 35.132446 -120.369848 283 3278ft 136kts
13-Jan-22 11:26 35.140641 -120.414752 279 2795ft 131kts
13-Jan-22 11:27 35.149622 -120.456581 294 2547ft 127kts
13-Jan-22 11:28 35.164431 -120.497238 293 1994ft 131kts
13-Jan-22 11:29 35.179076 -120.536780 297 1257ft 121kts
13-Jan-22 11:30 35.194208 -120.565753 303 1046ft 88kts
13-Jan-22 11:31 35.208991 -120.591629 305 774ft 95kts
13-Jan-22 11:32 35.223500 -120.616893 303 425ft 82kts
13-Jan-22 11:33 35.236265 -120.639214 303 198ft 56kts
13-Jan-22 11:34 35.237783 -120.640444 90 192ft 0kts
13-Jan-22 11:35 35.237784 -120.640444 90 192ft 0kts
13-Jan-22 11:36 35.237784 -120.640042 92 192ft 3kts
13-Jan-22 11:37 35.236682 -120.637950 126 199ft 10kts
13-Jan-22 11:38 35.236384 -120.636441 36 202ft 0kts
13-Jan-22 11:39 35.236384 -120.636441 36 202ft 0kts
13-Jan-22 11:40 35.236384 -120.636441 36 202ft 0kts
13-Jan-22 11:41 35.236384 -120.636441 36 202ft 0kts

Navigation Log

Ident Type
Flight plan parsing failed, navigation log unavailable